Caucaia, Brazil
Current Conditions -  °F | °C
As of 6:00 AM on Wednesday 26 Nov 2014 (Local Time) from SBFZ Reporting Station
Scattered Clouds Scattered Clouds  
Wind Chill: 79°   Ceiling: Unl
Heat Index: 81°   Visibility: 6mi
Dew Point: 68°   Wind: 13mph
Humidity: 69%   Direction: 90°E
Pressure: 29.85"   Gusts: NA
Location:  3.74°S, 38.67°W
Report Text: SBFZ 260900Z 09011KT 9999 SCT020 26/20 Q1011
Loading
Personal Weather Stations






























Interactive Weather Map New forecast layout! Learn more

10-Day Weather Forecast

Advertisements
Track Severe Weather on mobile